Time;durP1;ratioP1;P1;durP2;ratioP2;P2;SDS_P1;SDS_P2;PMS_P1;PMS_P2;Temp;Humidity;BMP_temperature;BMP_pressure;BME280_temperature;BME280_humidity;BME280_pressure;Samples;Min_cycle;Max_cycle;Signal;HPM_P1;HPM_P2
2023/06/22 00:01:48;;;;;;;7.40;5.22;;;;;;;17.32;95.65;101874.53;5092100;28;20028;-82
2023/06/22 00:04:13;;;;;;;8.10;5.25;;;;;;;17.23;95.96;101858.72;5092290;28;20070;-82
2023/06/22 00:06:38;;;;;;;8.98;5.13;;;;;;;17.18;96.07;101859.06;5092331;28;20111;-81
2023/06/22 00:09:04;;;;;;;8.38;5.68;;;;;;;17.15;96.95;101874.97;5073369;28;20481;-81
2023/06/22 00:11:31;;;;;;;9.05;5.32;;;;;;;17.09;97.88;101857.97;5092469;28;20024;-82
2023/06/22 00:13:56;;;;;;;10.75;5.95;;;;;;;16.95;97.81;101836.44;5092556;28;20039;-82
2023/06/22 00:16:21;;;;;;;9.90;6.07;;;;;;;16.87;98.05;101826.56;5074777;28;20020;-81
2023/06/22 00:18:48;;;;;;;8.38;5.97;;;;;;;17.10;98.03;101861.41;5092472;28;20107;-81
2023/06/22 00:21:14;;;;;;;7.95;5.35;;;;;;;16.78;97.74;101841.13;5073925;28;20036;-82
2023/06/22 00:23:39;;;;;;;7.90;5.47;;;;;;;16.87;98.33;101856.09;5092442;28;20027;-82
2023/06/22 00:26:04;;;;;;;13.18;6.53;;;;;;;16.90;98.37;101874.13;5092313;28;20457;-81
2023/06/22 00:28:33;;;;;;;8.88;6.25;;;;;;;16.69;99.02;101852.22;5091847;28;20036;-82
2023/06/22 00:31:00;;;;;;;9.00;6.55;;;;;;;16.78;99.23;101880.25;5096247;28;20453;-83
2023/06/22 00:33:25;;;;;;;9.05;6.03;;;;;;;16.73;99.89;101877.16;5096130;28;20031;-82
2023/06/22 00:35:52;;;;;;;9.18;6.10;;;;;;;16.71;100.00;101879.03;5096144;28;20020;-81
2023/06/22 00:38:18;;;;;;;9.20;6.03;;;;;;;16.50;100.00;101850.06;5095900;28;20032;-81
2023/06/22 00:40:43;;;;;;;9.88;6.43;;;;;;;16.40;100.00;101836.03;5077041;28;20085;-81
2023/06/22 00:43:08;;;;;;;9.45;6.15;;;;;;;16.45;100.00;101849.59;5095869;28;20374;-81
2023/06/22 00:45:34;;;;;;;9.77;7.03;;;;;;;16.47;100.00;101862.50;5095808;28;20470;-81
2023/06/22 00:48:00;;;;;;;9.35;6.85;;;;;;;16.41;100.00;101861.16;5095725;28;20071;-81
2023/06/22 00:50:33;;;;;;;9.77;6.78;;;;;;;16.47;100.00;101868.56;5095691;28;20024;-81
2023/06/22 00:53:01;;;;;;;8.88;6.60;;;;;;;16.43;100.00;101872.34;5095591;28;20039;-81
2023/06/22 00:55:26;;;;;;;10.05;7.25;;;;;;;16.19;100.00;101840.16;5095212;28;20103;-82
2023/06/22 00:57:56;;;;;;;9.13;7.28;;;;;;;16.33;100.00;101869.53;5094942;28;20133;-81
2023/06/22 01:00:24;;;;;;;9.32;6.90;;;;;;;16.29;100.00;101868.06;5095398;28;20032;-81
2023/06/22 01:02:51;;;;;;;10.40;7.88;;;;;;;16.19;100.00;101856.63;5095662;28;20024;-82
2023/06/22 01:05:21;;;;;;;9.65;7.22;;;;;;;16.25;100.00;101869.25;5095353;28;20020;-81
2023/06/22 01:07:46;;;;;;;9.25;7.45;;;;;;;16.25;100.00;101868.41;5095243;28;20024;-82
2023/06/22 01:10:23;;;;;;;9.98;6.75;;;;;;;16.24;100.00;101857.16;5095087;28;20453;-81
2023/06/22 01:12:55;;;;;;;9.27;7.05;;;;;;;16.18;100.00;101849.75;5095080;28;20032;-82
2023/06/22 01:15:27;;;;;;;9.43;6.82;;;;;;;15.98;100.00;101819.06;5095418;28;20477;-82
2023/06/22 01:17:55;;;;;;;8.68;6.90;;;;;;;15.98;100.00;101819.06;5095157;28;20489;-81
2023/06/22 01:20:22;;;;;;;9.85;6.88;;;;;;;16.12;100.00;101839.75;5094986;28;20461;-81
2023/06/22 01:23:07;;;;;;;11.98;7.47;;;;;;;16.18;100.00;101852.38;5094940;28;20032;-81
2023/06/22 01:25:47;;;;;;;10.00;7.47;;;;;;;16.05;100.00;101833.31;5094879;28;20047;-82
2023/06/22 01:28:15;;;;;;;9.52;7.63;;;;;;;16.12;100.00;101862.38;5094911;28;20028;-82
2023/06/22 01:30:41;;;;;;;10.10;7.43;;;;;;;16.05;100.00;101856.78;5094797;28;20020;-82
2023/06/22 01:33:13;;;;;;;10.32;7.93;;;;;;;16.10;100.00;101859.03;5094930;28;20024;-81
2023/06/22 01:35:38;;;;;;;10.10;8.20;;;;;;;16.11;100.00;101863.31;5076581;28;20446;-81
2023/06/22 01:38:05;;;;;;;11.50;8.85;;;;;;;16.00;100.00;101851.88;5094629;28;20103;-81
2023/06/22 01:40:32;;;;;;;11.57;8.93;;;;;;;16.06;100.00;101867.09;5093603;28;20034;-81
2023/06/22 01:43:00;;;;;;;11.75;9.65;;;;;;;16.06;100.00;101861.03;5094651;28;20052;-82
2023/06/22 01:45:27;;;;;;;12.82;10.55;;;;;;;16.03;100.00;101854.28;5094644;28;20081;-82
2023/06/22 01:47:54;;;;;;;13.05;10.48;;;;;;;16.10;100.00;101859.88;5094524;28;20100;-81
2023/06/22 01:50:20;;;;;;;12.00;10.30;;;;;;;16.11;100.00;101860.72;5094484;28;20025;-82
2023/06/22 01:52:45;;;;;;;15.10;10.73;;;;;;;16.17;100.00;101863.72;5094155;28;20124;-82
2023/06/22 01:55:10;;;;;;;11.98;9.93;;;;;;;16.12;100.00;101860.59;5094423;28;20021;-82
2023/06/22 01:57:38;;;;;;;14.27;10.40;;;;;;;16.07;100.00;101839.25;5094144;28;20040;-81
2023/06/22 02:00:07;;;;;;;17.27;10.98;;;;;;;16.15;100.00;101849.16;5094142;28;20438;-82
2023/06/22 02:02:53;;;;;;;12.88;10.65;;;;;;;15.94;100.00;101809.81;5094563;28;20516;-82
2023/06/22 02:05:19;;;;;;;14.45;10.23;;;;;;;15.93;100.00;101815.97;5093709;28;20388;-81
2023/06/22 02:07:52;;;;;;;13.38;10.82;;;;;;;16.14;100.00;101842.28;5094255;28;20020;-81
2023/06/22 02:10:20;;;;;;;12.63;10.68;;;;;;;16.15;100.00;101839.56;5089513;28;20458;-82
2023/06/22 02:12:46;;;;;;;13.23;10.38;;;;;;;16.11;100.00;101834.66;5073926;28;20056;-81
2023/06/22 02:15:14;;;;;;;16.92;11.88;;;;;;;16.19;100.00;101850.59;5074035;28;20393;-82
2023/06/22 02:17:43;;;;;;;13.80;11.65;;;;;;;16.17;100.00;101849.88;5073907;28;20038;-82
2023/06/22 02:20:13;;;;;;;11.80;10.45;;;;;;;16.14;100.00;101839.66;5055956;28;20028;-82
2023/06/22 02:22:38;;;;;;;16.83;11.63;;;;;;;15.95;100.00;101817.50;5073647;28;20116;-81
2023/06/22 02:25:04;;;;;;;15.63;12.70;;;;;;;16.08;100.00;101853.94;5055912;28;20123;-81
2023/06/22 02:27:29;;;;;;;14.68;12.05;;;;;;;16.12;100.00;101844.13;5073622;28;20073;-82
2023/06/22 02:29:54;;;;;;;17.67;12.25;;;;;;;16.09;100.00;101839.16;5073622;28;20484;-82
2023/06/22 02:32:20;;;;;;;14.65;12.18;;;;;;;16.13;100.00;101845.81;5073609;28;20552;-81
2023/06/22 02:34:47;;;;;;;15.95;13.05;;;;;;;16.02;100.00;101829.13;5073499;28;20021;-81
2023/06/22 02:37:14;;;;;;;15.05;12.80;;;;;;;16.11;100.00;101835.47;5073501;28;20021;-81
2023/06/22 02:39:40;;;;;;;15.73;13.45;;;;;;;16.10;100.00;101831.22;5073495;28;20027;-81
2023/06/22 02:42:06;;;;;;;15.95;12.48;;;;;;;16.05;100.00;101823.72;5073648;28;20437;-81
2023/06/22 02:44:31;;;;;;;15.27;13.27;;;;;;;16.03;100.00;101827.41;5073607;28;20064;-81
2023/06/22 02:46:57;;;;;;;14.98;13.23;;;;;;;16.03;100.00;101823.03;5073475;28;20036;-81
2023/06/22 02:49:23;;;;;;;13.70;12.20;;;;;;;16.00;100.00;101830.19;5072876;28;20028;-81
2023/06/22 02:51:48;;;;;;;17.38;14.07;;;;;;;16.01;100.00;101811.84;5073025;28;20094;-81
2023/06/22 02:54:14;;;;;;;15.10;13.50;;;;;;;15.99;100.00;101824.16;5073295;28;20029;-81
2023/06/22 02:56:40;;;;;;;17.40;14.10;;;;;;;15.93;100.00;101813.34;5054478;28;20402;-81
2023/06/22 02:59:06;;;;;;;16.10;14.05;;;;;;;15.99;100.00;101816.34;5054747;28;20043;-81
2023/06/22 03:01:37;;;;;;;17.25;13.15;;;;;;;15.96;100.00;101807.91;5072763;28;20437;-81
2023/06/22 03:04:02;;;;;;;;;;;;;;;16.00;100.00;101812.78;5054661;28;20131;-81
2023/06/22 03:06:28;;;;;;;17.17;13.30;;;;;;;15.83;100.00;101794.06;5072749;28;19952;-81
2023/06/22 03:09:00;;;;;;;15.30;13.60;;;;;;;15.65;100.00;101763.19;5054196;28;20064;-81
2023/06/22 03:11:26;;;;;;;16.67;14.27;;;;;;;15.72;100.00;101774.81;5054268;28;20044;-83
2023/06/22 03:13:52;;;;;;;15.73;13.93;;;;;;;15.89;100.00;101796.25;5072864;28;20027;-81
2023/06/22 03:16:18;;;;;;;16.95;14.68;;;;;;;15.81;100.00;101780.31;5072694;28;20472;-81
2023/06/22 03:18:44;;;;;;;14.70;12.48;;;;;;;15.75;100.00;101779.81;5072328;28;20059;-81
2023/06/22 03:21:09;;;;;;;15.55;13.48;;;;;;;15.87;100.00;101791.16;5073007;28;20033;-82
2023/06/22 03:23:34;;;;;;;17.55;14.45;;;;;;;15.68;100.00;101762.13;5072761;28;20024;-81
2023/06/22 03:26:00;;;;;;;18.77;15.18;;;;;;;15.89;100.00;101791.88;5072807;28;20383;-80
2023/06/22 03:28:25;;;;;;;15.95;13.43;;;;;;;15.85;100.00;101797.41;5072431;28;20082;-82
2023/06/22 03:30:50;;;;;;;17.02;14.25;;;;;;;15.81;100.00;101790.75;5072589;28;20052;-82
2023/06/22 03:33:16;;;;;;;16.67;14.07;;;;;;;15.75;100.00;101782.44;5054420;28;20020;-82
2023/06/22 03:35:42;;;;;;;15.77;13.93;;;;;;;15.74;100.00;101791.19;5054531;28;20029;-82
2023/06/22 03:38:07;;;;;;;16.48;14.35;;;;;;;15.80;100.00;101789.06;5072753;28;20055;-82
2023/06/22 03:40:32;;;;;;;18.40;14.55;;;;;;;15.78;100.00;101791.78;5072463;28;20029;-82
2023/06/22 03:42:58;;;;;;;16.60;13.80;;;;;;;15.76;100.00;101793.69;5072398;28;20024;-82
2023/06/22 03:45:23;;;;;;;17.23;14.27;;;;;;;15.61;100.00;101769.50;5072236;28;20074;-82
2023/06/22 03:47:48;;;;;;;16.40;14.45;;;;;;;15.72;100.00;101790.44;5054571;28;20052;-82
2023/06/22 03:50:14;;;;;;;16.20;14.50;;;;;;;15.70;100.00;101774.09;5072334;28;20086;-82
2023/06/22 03:52:40;;;;;;;16.63;13.55;;;;;;;15.66;100.00;101764.84;5072599;28;20043;-82
2023/06/22 03:55:07;;;;;;;17.95;13.70;;;;;;;15.87;100.00;101785.13;5072464;28;20056;-82
2023/06/22 03:57:32;;;;;;;19.92;15.30;;;;;;;15.77;100.00;101761.47;5072021;28;20128;-82
2023/06/22 03:59:58;;;;;;;17.27;15.32;;;;;;;15.88;100.00;101760.72;5072145;28;20048;-82
2023/06/22 04:02:24;;;;;;;23.25;16.63;;;;;;;16.07;100.00;101781.94;5072257;28;20025;-82
2023/06/22 04:04:49;;;;;;;18.55;15.60;;;;;;;16.15;100.00;101777.00;5074199;28;20535;-82
2023/06/22 04:07:14;;;;;;;19.52;16.00;;;;;;;16.22;100.00;101773.03;5076202;28;20043;-82
2023/06/22 04:09:40;;;;;;;19.33;15.73;;;;;;;16.12;100.00;101737.28;5076185;28;20046;-82
2023/06/22 04:12:05;;;;;;;17.95;14.60;;;;;;;16.41;100.00;101774.28;5076003;28;20024;-82
2023/06/22 04:14:31;;;;;;;19.98;15.43;;;;;;;16.11;100.00;101701.75;5076051;28;20025;-82
2023/06/22 04:16:57;;;;;;;18.10;15.70;;;;;;;16.63;100.00;101762.19;5058096;28;20028;-82
2023/06/22 04:19:23;;;;;;;18.90;15.05;;;;;;;16.78;100.00;101764.63;5076026;28;20020;-82
2023/06/22 04:21:48;;;;;;;21.40;15.15;;;;;;;16.84;100.00;101753.75;5075809;28;20103;-82
2023/06/22 04:24:14;;;;;;;18.35;14.52;;;;;;;17.00;100.00;101764.69;5075939;28;20031;-82
2023/06/22 04:26:41;;;;;;;18.27;14.93;;;;;;;17.05;100.00;101756.53;5075782;28;20021;-82
2023/06/22 04:29:08;;;;;;;16.15;14.20;;;;;;;17.12;100.00;101776.00;5075749;28;20123;-82
2023/06/22 04:31:36;;;;;;;18.85;14.77;;;;;;;17.13;100.00;101770.66;5075816;28;20079;-83
2023/06/22 04:34:05;;;;;;;16.65;14.10;;;;;;;16.91;100.00;101734.94;5075840;28;20119;-82
2023/06/22 04:36:38;;;;;;;15.60;14.00;;;;;;;17.24;100.00;101774.25;5075498;28;20024;-82
2023/06/22 04:39:09;;;;;;;17.75;14.50;;;;;;;17.16;100.00;101765.22;5075677;28;20060;-83
2023/06/22 04:41:41;;;;;;;18.35;14.65;;;;;;;16.99;100.00;101723.91;5075524;28;20020;-83
2023/06/22 04:44:23;;;;;;;15.48;12.85;;;;;;;17.52;100.00;101776.41;5075524;28;20059;-84
2023/06/22 04:46:54;;;;;;;12.60;10.18;;;;;;;17.66;100.00;101749.22;5056974;28;20551;-86
2023/06/22 04:49:21;;;;;;;17.40;13.60;;;;;;;18.07;98.79;101782.56;5057484;28;20025;-86
2023/06/22 04:51:48;;;;;;;15.68;14.00;;;;;;;18.20;98.60;101790.28;5075271;28;20458;-84
2023/06/22 04:54:14;;;;;;;17.65;13.77;;;;;;;18.39;97.27;101785.22;5075549;28;20056;-83
2023/06/22 04:56:40;;;;;;;15.38;13.40;;;;;;;18.48;95.77;101765.31;5075307;28;20374;-83
2023/06/22 04:59:06;;;;;;;18.27;14.60;;;;;;;18.59;95.43;101757.44;5074989;28;20028;-84
2023/06/22 05:01:32;;;;;;;15.68;13.43;;;;;;;18.72;96.01;101759.91;5075098;28;20063;-85
2023/06/22 05:04:00;;;;;;;15.85;11.60;;;;;;;19.11;92.77;101780.16;5056229;28;20071;-83
2023/06/22 05:06:28;;;;;;;17.23;14.43;;;;;;;18.98;92.36;101742.06;5075118;28;20101;-84
2023/06/22 05:08:57;;;;;;;16.40;13.55;;;;;;;19.37;91.20;101774.47;5075022;28;20024;-83
2023/06/22 05:11:27;;;;;;;15.45;12.05;;;;;;;19.48;91.43;101779.66;5074952;28;20024;-83
2023/06/22 05:13:52;;;;;;;19.23;14.95;;;;;;;19.42;89.90;101780.16;5074887;28;20035;-84
2023/06/22 05:16:22;;;;;;;14.57;13.02;;;;;;;19.51;90.32;101779.38;5074458;28;20020;-84
2023/06/22 05:18:48;;;;;;;18.13;14.45;;;;;;;19.61;89.55;101779.47;5074982;28;20021;-84
2023/06/22 05:21:13;;;;;;;19.95;15.85;;;;;;;19.73;89.41;101781.84;5074796;28;20090;-84
2023/06/22 05:23:46;;;;;;;15.40;12.35;;;;;;;19.66;89.27;101744.00;5074919;28;20055;-84
2023/06/22 05:26:11;;;;;;;14.30;12.57;;;;;;;19.79;88.68;101766.56;5074963;28;20055;-84
2023/06/22 05:28:37;;;;;;;15.02;13.27;;;;;;;19.89;88.86;101775.28;5074531;28;20032;-84
2023/06/22 05:31:02;;;;;;;16.60;14.90;;;;;;;19.64;88.08;101726.78;5074661;28;20028;-84
2023/06/22 05:33:27;;;;;;;16.73;14.43;;;;;;;20.12;87.95;101781.94;5074929;28;20024;-84
2023/06/22 05:35:53;;;;;;;18.52;15.45;;;;;;;20.20;87.35;101781.28;5074866;28;20482;-83
2023/06/22 05:38:18;;;;;;;20.50;14.13;;;;;;;19.79;87.26;101745.59;5056570;28;20047;-81
2023/06/22 05:40:43;;;;;;;14.55;12.30;;;;;;;19.90;88.10;101776.94;5083481;28;20059;-82
2023/06/22 05:43:09;;;;;;;16.00;14.10;;;;;;;19.87;88.63;101779.84;5094783;28;20052;-81
2023/06/22 05:54:15;;;;;;;14.73;12.80;;;;;;;19.55;86.62;101599.16;5217127;23;20119;-80
2023/06/22 05:56:40;;;;;;;15.63;13.63;;;;;;;20.61;84.43;101714.59;5014514;28;20543;-78
2023/06/22 05:59:06;;;;;;;18.40;14.77;;;;;;;20.82;83.88;101775.63;5033876;28;20029;-80
2023/06/22 06:01:34;;;;;;;13.07;10.63;;;;;;;19.64;84.43;101601.00;5033911;28;20017;-81
2023/06/22 06:03:59;;;;;;;13.48;11.90;;;;;;;20.19;85.33;101704.38;5034144;28;20067;-81
2023/06/22 06:06:28;;;;;;;17.50;15.60;;;;;;;20.31;86.70;101778.53;5034059;28;20486;-81
2023/06/22 06:08:53;;;;;;;16.67;14.43;;;;;;;20.16;87.49;101777.28;5033722;28;20079;-82
2023/06/22 06:11:18;;;;;;;16.88;14.98;;;;;;;20.06;88.20;101777.25;5033933;28;20022;-81
2023/06/22 06:13:45;;;;;;;17.65;15.18;;;;;;;19.92;88.17;101754.03;5034099;28;20501;-81
2023/06/22 06:16:10;;;;;;;19.90;17.05;;;;;;;20.05;89.49;101744.09;5033887;28;20060;-82
2023/06/22 06:18:37;;;;;;;19.75;17.13;;;;;;;20.32;87.69;101762.63;5015872;28;20065;-81
2023/06/22 06:21:02;;;;;;;18.13;15.55;;;;;;;20.26;88.04;101731.72;5033526;28;20092;-82
2023/06/22 06:23:28;;;;;;;19.25;17.13;;;;;;;20.54;87.47;101758.94;5033455;28;20124;-81
2023/06/22 06:25:53;;;;;;;17.65;15.38;;;;;;;20.41;87.10;101716.38;5033610;28;20426;-81
2023/06/22 06:28:18;;;;;;;19.38;17.48;;;;;;;20.76;86.05;101730.75;5032973;28;20022;-82
2023/06/22 06:30:44;;;;;;;17.40;15.60;;;;;;;21.22;85.23;101756.19;5033225;28;20060;-82
2023/06/22 06:33:09;;;;;;;18.27;16.30;;;;;;;21.44;85.02;101755.91;5033449;28;20049;-81
2023/06/22 06:35:35;;;;;;;16.77;14.60;;;;;;;21.44;82.82;101750.63;5033433;28;20079;-80
2023/06/22 06:38:00;;;;;;;18.92;16.15;;;;;;;21.56;84.44;101760.97;5033495;28;20025;-80
2023/06/22 06:40:25;;;;;;;16.73;13.75;;;;;;;21.81;81.72;101762.88;5033180;28;20475;-80
2023/06/22 06:42:51;;;;;;;18.70;12.95;;;;;;;21.90;81.29;101759.38;5033244;28;20402;-80
2023/06/22 06:45:24;;;;;;;16.92;13.48;;;;;;;21.96;80.39;101756.16;5033051;28;20096;-80
2023/06/22 06:47:51;;;;;;;18.05;15.80;;;;;;;21.94;81.77;101752.88;5033300;28;20029;-81
2023/06/22 06:50:16;;;;;;;17.83;15.93;;;;;;;22.26;80.21;101762.09;5032974;28;20140;-80
2023/06/22 06:52:41;;;;;;;19.48;17.33;;;;;;;22.23;80.24;101757.94;5033256;28;20099;-80
2023/06/22 06:55:11;;;;;;;17.65;15.30;;;;;;;22.24;79.70;101770.13;5032955;28;20025;-81
2023/06/22 06:57:37;;;;;;;20.60;17.60;;;;;;;21.94;80.42;101742.34;5032995;28;20021;-81
2023/06/22 07:00:09;;;;;;;15.13;13.07;;;;;;;22.05;79.86;101764.97;5032819;28;20060;-81
2023/06/22 07:02:34;;;;;;;16.58;14.93;;;;;;;22.14;80.89;101755.41;5032763;28;20501;-82
2023/06/22 07:04:59;;;;;;;17.88;15.98;;;;;;;22.53;79.18;101759.38;5032805;28;20109;-78
2023/06/22 07:07:25;;;;;;;20.20;17.92;;;;;;;22.85;78.43;101765.91;5032928;28;20053;-80
2023/06/22 07:09:55;;;;;;;19.83;17.88;;;;;;;22.97;75.36;101726.94;5032678;28;20082;-85
2023/06/22 07:12:21;;;;;;;16.65;14.95;;;;;;;23.13;74.89;101729.69;5032678;28;20022;-82
2023/06/22 07:14:46;;;;;;;18.85;16.95;;;;;;;23.25;74.96;101761.84;5032521;28;20040;-82
2023/06/22 07:17:15;;;;;;;17.65;15.73;;;;;;;23.15;74.61;101744.34;5032479;28;20403;-83
2023/06/22 07:19:42;;;;;;;18.48;13.32;;;;;;;23.11;76.55;101747.47;5015214;28;20029;-83
2023/06/22 07:22:07;;;;;;;19.85;16.35;;;;;;;23.17;74.76;101747.66;5015103;28;20018;-82
2023/06/22 07:24:32;;;;;;;16.10;13.60;;;;;;;23.14;75.48;101747.97;5032575;28;20471;-81
2023/06/22 07:26:58;;;;;;;20.58;18.38;;;;;;;22.99;74.88;101738.16;5031442;28;20526;-79
2023/06/22 07:29:24;;;;;;;20.13;18.02;;;;;;;22.61;75.15;101698.88;5033103;28;20029;-78
2023/06/22 07:31:56;;;;;;;20.00;16.90;;;;;;;22.80;77.27;101731.25;5032643;28;20026;-83
2023/06/22 07:34:21;;;;;;;16.83;15.10;;;;;;;22.83;77.38;101718.63;5032446;28;20044;-80
2023/06/22 07:36:47;;;;;;;17.58;14.85;;;;;;;23.10;75.89;101737.88;5032434;28;20467;-80
2023/06/22 07:39:12;;;;;;;18.73;15.48;;;;;;;23.06;75.51;101729.47;5031205;28;20135;-78
2023/06/22 07:41:39;;;;;;;17.67;15.20;;;;;;;23.02;74.67;101709.72;5032360;28;20087;-79
2023/06/22 07:44:06;;;;;;;16.30;13.13;;;;;;;23.12;74.40;101744.66;5032349;28;20032;-79
2023/06/22 07:46:31;;;;;;;17.50;15.50;;;;;;;23.10;76.29;101740.53;5031857;28;20479;-79
2023/06/22 07:48:57;;;;;;;17.85;15.52;;;;;;;23.06;75.81;101729.47;5032256;28;20025;-78
2023/06/22 07:51:23;;;;;;;15.63;13.52;;;;;;;22.99;76.38;101724.97;5032331;28;20378;-79
2023/06/22 07:53:48;;;;;;;18.35;16.50;;;;;;;22.89;75.95;101720.63;5032063;28;20042;-79
2023/06/22 07:56:18;;;;;;;17.58;15.80;;;;;;;22.74;75.76;101719.53;5032311;28;20032;-80
2023/06/22 07:58:44;;;;;;;16.33;12.68;;;;;;;22.65;76.79;101702.03;5032462;28;20022;-82
2023/06/22 08:01:10;;;;;;;15.05;11.98;;;;;;;22.51;77.37;101678.88;5017482;28;20034;-77
2023/06/22 08:03:35;;;;;;;18.67;16.42;;;;;;;22.66;80.30;101693.16;4994750;28;20061;-78
2023/06/22 08:06:01;;;;;;;18.70;16.80;;;;;;;22.56;79.99;101690.63;5012458;28;20026;-80
2023/06/22 08:08:26;;;;;;;19.67;16.80;;;;;;;22.44;80.10;101691.84;5012163;28;20049;-77
2023/06/22 08:10:51;;;;;;;18.83;16.27;;;;;;;22.41;79.18;101678.97;5012317;28;20034;-78
2023/06/22 08:13:17;;;;;;;17.63;15.75;;;;;;;22.29;79.35;101656.50;5012267;28;20033;-77
2023/06/22 08:15:42;;;;;;;19.52;16.75;;;;;;;22.13;88.40;101632.72;5012462;28;20026;-79
2023/06/22 08:18:07;;;;;;;18.23;15.80;;;;;;;22.41;86.82;101671.06;5012313;28;20464;-83
2023/06/22 08:20:33;;;;;;;17.98;15.63;;;;;;;22.28;79.57;101636.44;5012331;28;20033;-79
2023/06/22 08:23:05;;;;;;;17.02;14.98;;;;;;;22.58;84.63;101659.69;5012285;28;20041;-80
2023/06/22 08:25:30;;;;;;;16.45;13.93;;;;;;;22.79;80.77;101659.31;5012262;28;20463;-79
2023/06/22 08:27:56;;;;;;;18.15;15.35;;;;;;;22.83;81.29;101629.06;5012030;28;20030;-82
2023/06/22 08:30:21;;;;;;;17.63;14.13;;;;;;;23.19;81.11;101656.09;5012213;28;20052;-81
2023/06/22 08:32:46;;;;;;;15.48;12.77;;;;;;;23.07;80.25;101622.28;5012090;28;20048;-79
2023/06/22 08:35:12;;;;;;;14.75;11.98;;;;;;;23.04;79.55;101617.34;5012136;28;20144;-80
2023/06/22 08:37:38;;;;;;;15.60;13.05;;;;;;;23.28;79.52;101653.47;5012159;28;20072;-80
2023/06/22 08:40:07;;;;;;;14.05;12.38;;;;;;;23.27;71.13;101667.66;5012046;28;20030;-82
2023/06/22 08:42:33;;;;;;;14.63;12.63;;;;;;;23.08;73.83;101666.91;5011985;28;20076;-79
2023/06/22 08:44:58;;;;;;;13.20;10.30;;;;;;;23.12;74.26;101664.81;5012213;28;20380;-78
2023/06/22 08:47:23;;;;;;;15.75;11.70;;;;;;;22.90;74.85;101618.75;5011969;28;20052;-79
2023/06/22 08:49:49;;;;;;;15.20;11.48;;;;;;;23.13;75.36;101633.03;5012334;28;20046;-80
2023/06/22 08:52:14;;;;;;;10.68;8.70;;;;;;;23.49;75.11;101667.06;5015647;28;20022;-78
2023/06/22 08:54:40;;;;;;;13.50;10.98;;;;;;;23.47;75.90;101651.41;5015285;28;20037;-82
2023/06/22 08:57:05;;;;;;;14.50;11.57;;;;;;;23.41;69.88;101643.34;5015622;28;20036;-81
2023/06/22 08:59:31;;;;;;;13.10;9.40;;;;;;;23.37;71.07;101645.44;5015716;28;20544;-84
2023/06/22 09:01:56;;;;;;;12.68;10.77;;;;;;;23.20;71.74;101627.91;5015371;28;20030;-82
2023/06/22 09:04:22;;;;;;;14.73;9.57;;;;;;;23.25;71.95;101630.09;5015441;28;20384;-83
2023/06/22 09:06:48;;;;;;;13.98;10.88;;;;;;;23.18;70.48;101624.63;5015494;28;20069;-81
2023/06/22 09:09:14;;;;;;;14.38;12.10;;;;;;;23.31;69.28;101635.56;5015259;28;20065;-81
2023/06/22 09:11:40;;;;;;;12.23;10.60;;;;;;;22.92;68.27;101595.72;4997531;28;20029;-84
2023/06/22 09:14:05;;;;;;;12.85;11.13;;;;;;;22.77;67.75;101599.91;5015638;28;20512;-82
2023/06/22 09:16:30;;;;;;;11.35;10.15;;;;;;;22.76;69.78;101606.16;5015145;28;20029;-80
2023/06/22 09:18:56;;;;;;;12.27;10.55;;;;;;;22.94;67.83;101638.53;5015116;28;20030;-82
2023/06/22 09:21:21;;;;;;;11.57;8.95;;;;;;;22.86;69.66;101638.50;5015173;28;20018;-84
2023/06/22 09:23:50;;;;;;;12.77;9.48;;;;;;;22.84;68.82;101638.66;5014945;28;20104;-84
2023/06/22 09:26:16;;;;;;;10.52;8.55;;;;;;;22.94;71.68;101633.28;5014956;28;20407;-84
2023/06/22 09:28:41;;;;;;;12.32;11.00;;;;;;;23.05;69.31;101632.16;5015063;28;20750;-85
2023/06/22 09:31:07;;;;;;;11.85;9.65;;;;;;;22.96;70.35;101622.56;5015131;28;20034;-82
2023/06/22 09:33:32;;;;;;;15.73;10.27;;;;;;;23.02;69.54;101632.47;4997025;28;20467;-85
2023/06/22 09:35:58;;;;;;;12.20;9.60;;;;;;;22.97;69.34;101619.78;5014627;28;20042;-85
2023/06/22 09:38:23;;;;;;;12.32;8.52;;;;;;;23.01;69.91;101622.91;5014640;28;20099;-84
2023/06/22 09:40:48;;;;;;;12.32;10.50;;;;;;;23.03;68.73;101636.75;5014754;28;20025;-85
2023/06/22 09:43:14;;;;;;;12.25;10.88;;;;;;;23.02;67.79;101625.41;5014767;28;20061;-80
2023/06/22 09:45:39;;;;;;;13.38;10.73;;;;;;;22.65;68.65;101588.00;5015055;28;20144;-85
2023/06/22 09:48:05;;;;;;;10.80;9.70;;;;;;;22.67;70.50;101591.28;5014771;28;20360;-82
2023/06/22 09:50:30;;;;;;;12.50;10.48;;;;;;;22.70;69.16;101599.69;5015083;28;20088;-80
2023/06/22 09:53:16;;;;;;;12.27;10.10;;;;;;;22.24;69.89;101538.59;5013288;28;20072;-80
2023/06/22 09:55:41;;;;;;;14.18;10.52;;;;;;;22.76;68.80;101616.69;4996220;28;20057;-80
2023/06/22 09:58:16;;;;;;;13.75;11.27;;;;;;;21.74;68.80;101467.38;5013199;28;20014;-77
2023/06/22 10:00:54;;;;;;;10.88;9.07;;;;;;;21.84;71.43;101478.63;5014893;28;20018;-79
2023/06/22 10:03:19;;;;;;;13.15;10.68;;;;;;;22.37;70.56;101567.09;5013370;28;20029;-79
2023/06/22 10:05:47;;;;;;;12.30;10.63;;;;;;;22.68;70.60;101625.34;5014051;28;20028;-77
2023/06/22 10:08:12;;;;;;;15.43;11.20;;;;;;;22.62;70.71;101618.09;5014025;28;20064;-77
2023/06/22 10:10:38;;;;;;;13.35;10.73;;;;;;;22.57;72.70;101613.28;5014088;28;20038;-78
2023/06/22 10:13:11;;;;;;;13.23;9.52;;;;;;;22.42;72.95;101590.31;5014101;28;20028;-79
2023/06/22 10:15:37;;;;;;;13.77;11.15;;;;;;;22.48;73.79;101601.06;5013920;28;20076;-78
2023/06/22 10:18:03;;;;;;;10.77;8.43;;;;;;;22.52;74.29;101598.97;5013972;28;20431;-79
2023/06/22 10:20:28;;;;;;;12.23;10.75;;;;;;;22.58;73.78;101616.75;5013969;28;20030;-79
2023/06/22 10:22:53;;;;;;;15.57;13.15;;;;;;;22.45;74.35;101606.63;5013784;28;20392;-79
2023/06/22 10:25:19;;;;;;;12.27;10.93;;;;;;;;;;5014215;28;20029;-79
2023/06/22 10:27:44;;;;;;;16.25;14.52;;;;;;;22.31;74.27;101586.13;5013958;28;20049;-78
2023/06/22 10:30:14;;;;;;;14.32;12.77;;;;;;;22.24;75.48;101580.69;5013647;28;20464;-80
2023/06/22 10:32:42;;;;;;;15.82;14.13;;;;;;;22.51;76.96;101611.25;5013626;28;20072;-79
2023/06/22 10:35:07;;;;;;;15.40;13.80;;;;;;;22.47;74.89;101611.75;4996231;28;20440;-78
2023/06/22 10:37:33;;;;;;;17.15;13.25;;;;;;;22.43;75.73;101605.16;5013564;28;20053;-79
2023/06/22 10:39:58;;;;;;;18.65;16.63;;;;;;;22.24;75.61;101599.09;5013451;28;20026;-78
2023/06/22 10:42:24;;;;;;;16.98;15.07;;;;;;;22.25;77.59;101603.38;5013622;28;20034;-78
2023/06/22 10:44:49;;;;;;;14.25;12.73;;;;;;;22.33;77.32;101610.53;5013574;28;20022;-78
2023/06/22 10:47:14;;;;;;;18.33;15.43;;;;;;;22.28;76.21;101618.84;5013451;28;20041;-80
2023/06/22 10:49:43;;;;;;;16.30;14.40;;;;;;;22.15;75.72;101612.34;5013302;28;20033;-84
2023/06/22 10:52:08;;;;;;;12.85;11.13;;;;;;;22.04;77.73;101603.69;5013396;28;20065;-80
2023/06/22 10:54:35;;;;;;;15.30;13.70;;;;;;;21.97;77.11;101601.81;5029741;28;20099;-82
2023/06/22 10:57:02;;;;;;;14.10;12.25;;;;;;;22.13;78.40;101638.81;5033097;28;20025;-79
2023/06/22 10:59:28;;;;;;;15.93;11.38;;;;;;;22.19;77.71;101640.81;5033297;28;20427;-78
2023/06/22 11:01:54;;;;;;;13.38;11.30;;;;;;;22.21;80.09;101638.03;5032779;28;20017;-79
2023/06/22 11:04:20;;;;;;;14.80;12.52;;;;;;;22.15;80.25;101621.06;5014977;28;20030;-78
2023/06/22 11:06:45;;;;;;;12.98;11.65;;;;;;;22.16;78.03;101616.63;5033103;28;20026;-80
2023/06/22 11:09:11;;;;;;;12.98;9.98;;;;;;;22.31;78.07;101636.97;5032855;28;20514;-80
2023/06/22 11:11:36;;;;;;;13.15;10.57;;;;;;;22.31;80.44;101642.22;5032780;28;20471;-79
2023/06/22 11:14:01;;;;;;;15.43;13.32;;;;;;;22.26;83.84;101646.31;5032731;28;20111;-80
2023/06/22 11:16:27;;;;;;;13.52;11.40;;;;;;;22.27;79.90;101642.69;5032807;28;20502;-79